Airfield :
LOGIN :

Register | Disclaimer

   EN    FR    IT 

 










Legend :    VFR   Marginal VFR   IFR   Intensive IFR   Very Intensive IFR
Visi :
Ceiling :
>= 8 km
>= 3000ft
5 to 8 km
1000 to 3000 ft
1500m to 5 km
500 to 1000 ft
800 to 1500m
200 to 500 ft
< 800m
< 200 ft
Symbols :   Thunderstorms  Fog  Heavy snow  Heavy precipitations  Wind > 20 kt
SIGMETs :     Misc.  Thunderstorms  Icing  Turbulence  Mountain Waves  Volcanic Ashes







- Airport Elevation : 265 ft
- IATA code : BJY


LYBT - Batajnica Air Base

CURRENT METAR :
  • 152330Z 17001KT CAVOK M03/M04 Q1033 NOSIG

EXPIRED METARs :
  • 152300Z 13001KT CAVOK M02/M04 Q1033 NOSIG
  • 152200Z 30002KT CAVOK M01/M03 Q1033 NOSIG
  • 152130Z 29003KT CAVOK M00/M02 Q1032 NOSIG
  • 152100Z 00000KT CAVOK 00/M02 Q1033 NOSIG

TAF TAF LYBT
Valid from the 15 at 18:00 until the 16 at 18:00 UTC


151700Z 1518/1618 25005KT CAVOK TX09/1613Z TNM02/1605Z
BECMG 1522/1524 3000 BR
PROB40
TEMPO 1603/1607 0500 FZFG
BECMG 1608/1610 7000 NSW
No reported NOTAMs for that airfield.



MET'MAP, your aeronautical weather chart ! - Copyright ORBIFLY December 2007 - Disclaimer

ORBIFLY MET'MAP TEAM :

Programming & Development : Alexandra Zaïnal
Concept & Development : Baudouin d'Aumeries
Co-Development & Prog : Marc-Olivier Méhu
Technical & hardware support : Manuel Goepfert

Contact : metmap@orbifly.com




SOURCES & CREDITS :

   NOAA